Time;durP1;ratioP1;P1;durP2;ratioP2;P2;SDS_P1;SDS_P2;PMS_P1;PMS_P2;Temp;Humidity;BMP_temperature;BMP_pressure;BME280_temperature;BME280_humidity;BME280_pressure;Samples;Min_cycle;Max_cycle;Signal;HPM_P1;HPM_P2
2021/09/22 00:00:48;;;;;;;2.83;2.05;;;29.20;90.10;;;;;;5046015;28;20424;-50
2021/09/22 00:03:14;;;;;;;4.53;1.90;;;29.20;90.10;;;;;;5045601;28;20067;-52
2021/09/22 00:05:44;;;;;;;9.80;2.10;;;29.10;90.10;;;;;;5045894;28;20024;-54
2021/09/22 00:08:11;;;;;;;2.67;1.42;;;29.10;90.10;;;;;;5045437;28;20025;-53
2021/09/22 00:10:38;;;;;;;7.05;1.65;;;29.10;90.10;;;;;;5045001;28;20044;-55
2021/09/22 00:13:05;;;;;;;4.28;1.63;;;29.10;90.20;;;;;;5045051;28;20041;-54
2021/09/22 00:15:32;;;;;;;5.70;2.03;;;29.00;90.10;;;;;;5044346;28;20191;-51
2021/09/22 00:17:59;;;;;;;3.20;1.50;;;29.00;90.10;;;;;;5045500;28;20033;-52
2021/09/22 00:20:26;;;;;;;4.43;1.58;;;29.00;90.10;;;;;;5045459;28;20021;-52
2021/09/22 00:22:58;;;;;;;3.47;1.35;;;29.00;90.10;;;;;;5045177;28;20266;-55
2021/09/22 00:25:27;;;;;;;3.72;1.30;;;29.00;90.10;;;;;;5045811;28;20282;-51
2021/09/22 00:27:54;;;;;;;2.20;1.30;;;29.00;90.20;;;;;;5045093;28;20017;-50
2021/09/22 00:30:21;;;;;;;3.65;1.42;;;29.00;90.20;;;;;;5045721;28;20021;-55
2021/09/22 00:32:50;;;;;;;4.80;1.20;;;29.00;90.20;;;;;;5045042;28;20264;-52
2021/09/22 00:35:17;;;;;;;4.13;1.20;;;29.00;90.20;;;;;;5045170;28;20030;-52
2021/09/22 00:37:43;;;;;;;3.03;1.40;;;29.00;90.20;;;;;;5044841;28;20033;-52
2021/09/22 00:40:11;;;;;;;6.70;1.80;;;29.00;90.00;;;;;;5044199;28;20029;-63
2021/09/22 00:42:38;;;;;;;15.60;2.28;;;29.00;90.00;;;;;;5044878;28;20017;-56
2021/09/22 00:45:08;;;;;;;16.23;2.33;;;29.00;90.10;;;;;;5045423;28;20022;-51
2021/09/22 00:47:35;;;;;;;12.65;2.33;;;28.90;90.10;;;;;;5044787;28;20025;-53
2021/09/22 00:50:03;;;;;;;11.48;1.67;;;29.00;90.20;;;;;;5044930;28;20017;-52
2021/09/22 00:52:30;;;;;;;10.30;1.73;;;28.90;90.10;;;;;;5044861;28;20027;-53
2021/09/22 00:54:57;;;;;;;10.75;1.50;;;28.90;90.10;;;;;;5044953;28;20021;-50
2021/09/22 00:57:24;;;;;;;8.13;1.73;;;28.90;90.00;;;;;;5044389;28;20087;-52
2021/09/22 00:59:51;;;;;;;9.43;1.65;;;28.90;90.00;;;;;;5044800;28;20017;-55
2021/09/22 01:02:18;;;;;;;11.13;1.75;;;28.90;90.00;;;;;;5044727;28;20385;-54
2021/09/22 01:04:45;;;;;;;11.40;6.22;;;29.00;90.00;;;;;;5043541;28;20325;-58
2021/09/22 01:07:13;;;;;;;14.95;10.85;;;28.90;90.00;;;;;;5044304;28;20084;-54
2021/09/22 01:09:42;;;;;;;15.40;8.70;;;28.90;90.20;;;;;;5044801;28;20022;-55
2021/09/22 01:12:10;;;;;;;13.52;6.78;;;28.90;90.20;;;;;;5044274;28;20068;-56
2021/09/22 01:14:37;;;;;;;12.05;5.80;;;28.90;90.30;;;;;;5044464;28;20025;-53
2021/09/22 01:17:04;;;;;;;8.05;5.13;;;28.90;90.30;;;;;;5044497;28;20344;-53
2021/09/22 01:19:33;;;;;;;8.95;4.22;;;28.90;90.40;;;;;;5044009;28;20033;-56
2021/09/22 01:22:00;;;;;;;8.52;4.05;;;28.90;90.40;;;;;;5044041;28;20290;-55
2021/09/22 01:24:27;;;;;;;5.85;3.20;;;28.90;90.50;;;;;;5044063;28;20044;-54
2021/09/22 01:26:54;;;;;;;4.72;2.95;;;28.90;90.50;;;;;;5044091;28;20014;-54
2021/09/22 01:29:21;;;;;;;10.07;3.42;;;28.90;90.50;;;;;;5043066;28;20049;-52
2021/09/22 01:31:48;;;;;;;8.55;4.75;;;28.80;90.50;;;;;;5044187;28;20025;-55
2021/09/22 01:34:17;;;;;;;12.48;4.80;;;28.80;90.60;;;;;;5044127;28;20067;-54
2021/09/22 01:36:47;;;;;;;9.90;4.30;;;28.80;90.60;;;;;;5043884;28;20032;-48
2021/09/22 01:39:14;;;;;;;7.05;3.95;;;28.80;90.60;;;;;;5043993;28;20060;-54
2021/09/22 01:41:43;;;;;;;9.23;4.10;;;28.80;90.70;;;;;;5043859;28;20017;-52
2021/09/22 01:44:10;;;;;;;8.63;4.05;;;28.80;90.60;;;;;;5044267;28;20029;-49
2021/09/22 01:46:37;;;;;;;7.47;3.13;;;28.70;90.70;;;;;;5042813;28;20183;-50
2021/09/22 01:49:04;;;;;;;6.30;2.65;;;28.80;90.60;;;;;;5044181;28;20301;-52
2021/09/22 01:51:31;;;;;;;8.90;2.53;;;28.80;90.70;;;;;;5043886;28;20021;-55
2021/09/22 01:53:58;;;;;;;8.35;2.80;;;28.70;90.60;;;;;;5043831;28;20049;-51
2021/09/22 01:56:25;;;;;;;10.30;3.40;;;28.80;90.70;;;;;;5044096;28;20081;-56
2021/09/22 01:58:52;;;;;;;8.50;3.50;;;28.80;90.70;;;;;;5043819;28;20093;-49
2021/09/22 02:01:19;;;;;;;7.97;4.07;;;28.70;90.60;;;;;;5043801;28;20018;-53
2021/09/22 02:03:47;;;;;;;10.05;4.00;;;28.80;90.70;;;;;;5042520;28;20025;-54
2021/09/22 02:06:15;;;;;;;10.02;4.20;;;28.70;90.70;;;;;;5043663;28;20022;-50
2021/09/22 02:08:43;;;;;;;11.50;5.30;;;28.70;90.70;;;;;;5043756;28;20087;-53
2021/09/22 02:11:10;;;;;;;17.90;5.63;;;28.70;90.70;;;;;;5043662;28;20052;-51
2021/09/22 02:13:37;;;;;;;10.38;5.03;;;28.70;90.80;;;;;;5043454;28;20037;-52
2021/09/22 02:16:04;;;;;;;14.35;5.60;;;28.70;90.50;;;;;;5043715;28;20041;-53
2021/09/22 02:18:31;;;;;;;11.75;6.32;;;28.70;90.50;;;;;;5042355;28;20302;-49
2021/09/22 02:20:58;;;;;;;10.60;5.75;;;28.70;90.50;;;;;;5043809;28;20245;-60
2021/09/22 02:23:25;;;;;;;9.80;5.22;;;28.70;90.50;;;;;;5043678;28;20013;-51
2021/09/22 02:25:52;;;;;;;10.52;6.93;;;28.70;90.50;;;;;;5043327;28;20033;-49
2021/09/22 02:28:19;;;;;;;11.18;7.53;;;28.70;90.60;;;;;;5043618;28;20017;-51
2021/09/22 02:30:46;;;;;;;11.05;6.50;;;28.70;90.60;;;;;;5044018;28;20049;-51
2021/09/22 02:33:13;;;;;;;15.20;7.03;;;28.60;90.60;;;;;;5044844;28;20333;-53
2021/09/22 02:35:40;;;;;;;12.40;6.47;;;28.70;90.70;;;;;;5047790;28;20064;-51
2021/09/22 02:38:07;;;;;;;9.25;5.00;;;28.70;90.70;;;;;;5047048;28;20214;-53
2021/09/22 02:40:34;;;;;;;7.88;4.40;;;28.60;90.70;;;;;;5046273;28;20017;-53
2021/09/22 02:43:00;;;;;;;9.02;4.25;;;28.60;90.60;;;;;;5047076;28;20088;-49
2021/09/22 02:45:27;;;;;;;7.38;3.58;;;28.60;90.60;;;;;;5047570;28;20278;-51
2021/09/22 02:47:54;;;;;;;7.28;3.05;;;28.60;90.60;;;;;;5045807;28;20067;-53
2021/09/22 02:50:21;;;;;;;4.80;2.90;;;28.60;90.60;;;;;;5046094;28;20209;-51
2021/09/22 02:52:48;;;;;;;4.35;2.60;;;28.60;90.60;;;;;;5047353;28;20044;-49
2021/09/22 02:55:14;;;;;;;8.80;2.40;;;28.60;90.60;;;;;;5047156;28;20059;-53
2021/09/22 02:57:41;;;;;;;5.90;2.13;;;28.60;90.50;;;;;;5046878;28;20067;-59
2021/09/22 03:00:10;;;;;;;7.28;2.28;;;28.60;90.50;;;;;;5047178;28;20084;-51
2021/09/22 03:02:38;;;;;;;8.88;1.90;;;28.60;90.60;;;;;;5045645;28;20029;-53
2021/09/22 03:05:06;;;;;;;7.95;1.85;;;28.50;90.60;;;;;;5047041;28;20237;-56
2021/09/22 03:07:33;;;;;;;6.88;1.80;;;28.50;90.70;;;;;;5046520;28;20036;-53
2021/09/22 03:09:59;;;;;;;4.82;2.33;;;28.40;90.60;;;;;;5045355;28;20025;-49
2021/09/22 03:12:29;;;;;;;9.85;2.50;;;28.40;90.70;;;;;;5046555;28;20057;-52
2021/09/22 03:14:57;;;;;;;6.15;2.65;;;28.40;90.70;;;;;;5047459;28;20052;-50
2021/09/22 03:17:23;;;;;;;6.22;2.35;;;28.40;90.80;;;;;;5046568;28;20108;-53
2021/09/22 03:19:50;;;;;;;5.57;2.53;;;28.40;90.80;;;;;;5047027;28;20022;-52
2021/09/22 03:22:17;;;;;;;7.55;2.60;;;28.40;90.70;;;;;;5046946;28;20092;-53
2021/09/22 03:24:44;;;;;;;5.95;1.98;;;28.40;90.80;;;;;;5046918;28;20017;-57
2021/09/22 03:27:10;;;;;;;5.32;2.20;;;28.40;90.80;;;;;;5046793;28;20090;-61
2021/09/22 03:29:37;;;;;;;7.38;1.90;;;28.40;90.90;;;;;;5046497;28;20026;-53
2021/09/22 03:32:04;;;;;;;6.32;1.80;;;28.40;90.90;;;;;;5046278;28;20030;-52
2021/09/22 03:34:31;;;;;;;8.45;1.73;;;28.40;90.90;;;;;;5046802;28;20024;-54
2021/09/22 03:36:57;;;;;;;5.32;1.63;;;28.40;90.90;;;;;;5046242;28;20109;-54
2021/09/22 03:39:24;;;;;;;10.93;2.10;;;28.50;90.90;;;;;;5045970;28;20013;-49
2021/09/22 03:41:50;;;;;;;6.43;1.60;;;28.40;90.80;;;;;;5045927;28;20045;-51
2021/09/22 03:44:17;;;;;;;4.28;1.30;;;28.40;90.90;;;;;;5045686;28;20022;-48
2021/09/22 03:46:44;;;;;;;6.15;1.73;;;28.40;90.90;;;;;;5045955;28;20038;-54
2021/09/22 03:49:10;;;;;;;12.23;1.55;;;28.40;90.90;;;;;;5045176;28;20017;-55
2021/09/22 03:51:38;;;;;;;11.63;1.65;;;28.40;90.90;;;;;;5046600;28;20203;-53
2021/09/22 03:54:05;;;;;;;13.05;2.03;;;28.40;91.00;;;;;;5046252;28;20017;-52
2021/09/22 03:56:31;;;;;;;8.65;1.65;;;28.40;91.00;;;;;;5046636;28;20090;-53
2021/09/22 03:58:58;;;;;;;12.32;1.80;;;28.40;91.10;;;;;;5046369;28;20025;-53
2021/09/22 04:01:25;;;;;;;12.27;1.50;;;28.40;91.10;;;;;;5046581;28;20022;-51
2021/09/22 04:03:51;;;;;;;5.70;1.20;;;28.40;91.20;;;;;;5046590;28;20013;-54
2021/09/22 04:06:18;;;;;;;13.35;1.80;;;28.40;91.10;;;;;;5045085;28;20056;-55
2021/09/22 04:08:45;;;;;;;6.40;1.45;;;28.40;91.10;;;;;;5046336;28;20014;-52
2021/09/22 04:11:12;;;;;;;6.05;1.35;;;28.40;91.10;;;;;;5046272;28;20029;-55
2021/09/22 04:13:39;;;;;;;4.95;1.17;;;28.40;91.10;;;;;;5046035;28;20037;-49
2021/09/22 04:16:06;;;;;;;7.78;1.60;;;28.40;91.10;;;;;;5044903;28;20379;-53
2021/09/22 04:18:32;;;;;;;4.80;2.55;;;28.40;91.20;;;;;;5045931;28;20341;-51
2021/09/22 04:20:59;;;;;;;5.60;3.28;;;28.40;91.20;;;;;;5045063;28;20377;-53
2021/09/22 04:23:26;;;;;;;9.75;3.42;;;28.40;91.30;;;;;;5045801;28;20084;-57
2021/09/22 04:25:53;;;;;;;8.30;2.75;;;28.40;91.30;;;;;;5046565;28;20254;-55
2021/09/22 04:28:20;;;;;;;5.85;2.53;;;28.40;91.30;;;;;;5045620;28;20025;-56
2021/09/22 04:30:47;;;;;;;6.63;2.15;;;28.40;91.40;;;;;;5045824;28;20028;-53
2021/09/22 04:33:14;;;;;;;4.63;2.10;;;28.40;91.40;;;;;;5027501;28;20032;-49
2021/09/22 04:35:41;;;;;;;7.28;1.85;;;28.40;91.40;;;;;;5045360;28;20202;-50
2021/09/22 04:38:08;;;;;;;6.70;2.25;;;28.40;91.40;;;;;;5044813;28;20028;-49
2021/09/22 04:40:35;;;;;;;4.50;1.90;;;28.30;91.40;;;;;;5044964;28;20051;-48
2021/09/22 04:43:02;;;;;;;10.27;2.40;;;28.30;91.40;;;;;;5044742;28;20017;-48
2021/09/22 04:45:29;;;;;;;4.32;1.63;;;28.30;91.40;;;;;;5045070;28;20029;-48
2021/09/22 04:47:56;;;;;;;5.35;1.90;;;28.30;91.40;;;;;;5044500;28;20080;-49
2021/09/22 04:50:24;;;;;;;6.15;1.88;;;28.30;91.40;;;;;;5044455;28;20025;-49
2021/09/22 04:52:51;;;;;;;8.70;1.55;;;28.30;91.40;;;;;;5044484;28;20022;-48
2021/09/22 04:55:17;;;;;;;5.00;1.63;;;28.30;91.30;;;;;;5044045;28;20025;-52
2021/09/22 04:57:44;;;;;;;6.70;1.60;;;28.30;91.30;;;;;;5044361;28;20033;-54
2021/09/22 05:00:11;;;;;;;10.60;1.40;;;28.30;91.40;;;;;;5044716;28;20250;-53
2021/09/22 05:02:38;;;;;;;4.53;1.63;;;28.30;91.40;;;;;;5044196;28;20026;-48
2021/09/22 05:05:05;;;;;;;5.22;1.40;;;28.30;91.40;;;;;;5044623;28;20017;-48
2021/09/22 05:07:31;;;;;;;6.50;1.25;;;28.20;91.30;;;;;;5044573;28;20041;-50
2021/09/22 05:09:58;;;;;;;5.25;1.45;;;28.20;91.30;;;;;;5044379;28;20030;-49
2021/09/22 05:12:24;;;;;;;5.95;1.48;;;28.20;91.30;;;;;;5044234;28;20052;-50
2021/09/22 05:14:51;;;;;;;4.70;1.33;;;28.20;91.30;;;;;;5044482;28;20336;-47
2021/09/22 05:17:18;;;;;;;6.43;1.33;;;28.20;91.20;;;;;;5043993;28;20056;-47
2021/09/22 05:19:44;;;;;;;5.55;1.30;;;28.20;91.30;;;;;;5044323;28;20044;-53
2021/09/22 05:22:15;;;;;;;4.93;1.52;;;28.20;91.30;;;;;;5044129;28;20021;-54
2021/09/22 05:24:45;;;;;;;8.05;1.52;;;28.20;91.30;;;;;;5044116;28;20084;-51
2021/09/22 05:27:12;;;;;;;6.55;1.40;;;28.20;91.40;;;;;;5044070;28;20021;-49
2021/09/22 05:29:39;;;;;;;8.93;1.48;;;28.10;91.40;;;;;;5044267;28;20067;-51
2021/09/22 05:32:05;;;;;;;7.72;1.55;;;28.20;91.40;;;;;;5043822;28;20025;-53
2021/09/22 05:34:32;;;;;;;4.55;1.60;;;28.20;91.30;;;;;;5043838;28;20063;-47
2021/09/22 05:36:59;;;;;;;6.50;1.48;;;28.20;91.40;;;;;;5043866;28;20034;-49
2021/09/22 05:39:25;;;;;;;3.53;1.20;;;28.20;91.40;;;;;;5043868;28;20021;-51
2021/09/22 05:41:52;;;;;;;6.22;1.40;;;28.20;91.40;;;;;;5044106;28;20025;-48
2021/09/22 05:44:18;;;;;;;6.25;1.30;;;28.10;91.40;;;;;;5044297;28;20210;-49
2021/09/22 05:46:45;;;;;;;4.40;1.25;;;28.10;91.40;;;;;;5043649;28;20084;-52
2021/09/22 05:49:12;;;;;;;4.07;1.30;;;28.20;91.40;;;;;;5043956;28;20022;-55
2021/09/22 05:51:38;;;;;;;2.60;1.13;;;28.10;91.40;;;;;;5043711;28;20026;-47
2021/09/22 05:54:05;;;;;;;5.25;1.48;;;28.10;91.50;;;;;;5043678;28;20029;-47
2021/09/22 05:56:31;;;;;;;3.28;1.60;;;28.10;91.50;;;;;;5043792;28;20021;-48
2021/09/22 05:58:58;;;;;;;6.85;1.30;;;28.10;91.50;;;;;;5043955;28;20364;-47
2021/09/22 06:01:24;;;;;;;3.22;1.35;;;28.10;91.40;;;;;;5043647;28;20014;-49
2021/09/22 06:03:51;;;;;;;5.60;1.70;;;28.10;91.50;;;;;;5043781;28;20018;-51
2021/09/22 06:06:17;;;;;;;5.93;1.55;;;28.10;91.50;;;;;;5043702;28;20025;-52
2021/09/22 06:08:44;;;;;;;5.82;1.40;;;28.10;91.50;;;;;;5047418;28;20025;-55
2021/09/22 06:11:10;;;;;;;6.45;1.50;;;28.10;91.50;;;;;;5047715;28;20028;-51
2021/09/22 06:13:37;;;;;;;5.03;1.67;;;28.10;91.50;;;;;;5047486;28;20048;-51
2021/09/22 06:16:04;;;;;;;7.28;1.70;;;28.10;91.50;;;;;;5047465;28;20232;-54
2021/09/22 06:18:31;;;;;;;3.72;1.20;;;28.10;91.50;;;;;;5047399;28;20036;-51
2021/09/22 06:20:57;;;;;;;5.72;1.33;;;28.00;91.50;;;;;;5047337;28;20063;-50
2021/09/22 06:23:24;;;;;;;6.50;1.60;;;28.10;91.50;;;;;;5047546;28;20017;-51
2021/09/22 06:25:51;;;;;;;3.95;1.25;;;28.00;91.50;;;;;;5047260;28;20022;-55
2021/09/22 06:28:17;;;;;;;5.05;1.30;;;28.10;91.50;;;;;;5047423;28;20058;-54
2021/09/22 06:30:44;;;;;;;4.05;1.40;;;28.10;91.50;;;;;;5047713;28;20045;-51
2021/09/22 06:33:11;;;;;;;9.52;1.67;;;28.10;91.50;;;;;;5047068;28;20089;-48
2021/09/22 06:35:37;;;;;;;6.88;1.70;;;28.00;91.40;;;;;;5047638;28;20022;-55
2021/09/22 06:38:04;;;;;;;5.00;1.40;;;28.00;91.40;;;;;;5047118;28;20322;-49
2021/09/22 06:40:31;;;;;;;4.85;1.38;;;28.00;91.40;;;;;;5047250;28;20029;-49
2021/09/22 06:42:57;;;;;;;7.57;1.30;;;28.00;91.40;;;;;;5046970;28;20276;-55
2021/09/22 06:45:24;;;;;;;6.97;1.40;;;28.10;91.40;;;;;;5047309;28;20053;-51
2021/09/22 06:47:51;;;;;;;4.45;1.67;;;28.00;91.40;;;;;;5046827;28;20234;-49
2021/09/22 06:50:18;;;;;;;3.33;1.13;;;28.00;91.50;;;;;;5047277;28;20191;-56
2021/09/22 06:52:45;;;;;;;6.57;1.27;;;28.00;91.50;;;;;;5046826;28;20021;-51
2021/09/22 06:55:12;;;;;;;4.43;1.33;;;28.00;91.50;;;;;;5047074;28;20187;-55
2021/09/22 06:57:39;;;;;;;4.65;1.30;;;28.00;91.40;;;;;;5046714;28;20084;-53
2021/09/22 07:00:09;;;;;;;8.60;1.50;;;27.90;91.40;;;;;;5046932;28;20027;-55
2021/09/22 07:02:37;;;;;;;8.18;1.55;;;27.90;91.40;;;;;;5046461;28;20089;-52
2021/09/22 07:05:09;;;;;;;4.07;1.10;;;28.00;91.40;;;;;;5046952;28;20021;-51
2021/09/22 07:07:35;;;;;;;;;;;27.90;91.40;;;;;;5046954;28;20044;-49
2021/09/22 07:10:03;;;;;;;4.20;1.10;;;27.90;91.50;;;;;;5046787;28;20142;-48
2021/09/22 07:12:31;;;;;;;3.85;1.23;;;27.90;91.50;;;;;;5046387;28;20041;-53
2021/09/22 07:14:59;;;;;;;4.90;1.15;;;27.90;91.50;;;;;;5046896;28;20034;-50
2021/09/22 07:17:25;;;;;;;3.47;1.05;;;27.90;91.50;;;;;;5046637;28;20095;-49
2021/09/22 07:19:52;;;;;;;4.32;1.40;;;27.90;91.50;;;;;;5045307;28;20037;-48
2021/09/22 07:22:18;;;;;;;5.22;1.20;;;27.90;91.50;;;;;;5046416;28;20048;-49
2021/09/22 07:24:45;;;;;;;4.10;1.13;;;27.90;91.50;;;;;;5046393;28;20025;-55
2021/09/22 07:27:11;;;;;;;4.72;1.30;;;27.90;91.50;;;;;;5046213;28;20013;-53
2021/09/22 07:29:38;;;;;;;3.10;0.95;;;27.90;91.50;;;;;;5046417;28;20036;-55
2021/09/22 07:32:06;;;;;;;4.75;1.25;;;27.90;91.50;;;;;;5045812;28;20067;-52
2021/09/22 07:34:34;;;;;;;4.72;1.35;;;27.90;91.50;;;;;;5046262;28;20093;-52
2021/09/22 07:37:06;;;;;;;3.97;1.00;;;27.80;91.40;;;;;;5046107;28;20041;-50
2021/09/22 07:39:33;;;;;;;4.50;1.30;;;27.90;91.40;;;;;;5046095;28;20318;-55
2021/09/22 07:42:00;;;;;;;7.18;1.35;;;27.90;91.50;;;;;;5046185;28;20047;-52
2021/09/22 07:44:26;;;;;;;6.55;1.20;;;27.90;91.50;;;;;;5045997;28;20025;-49
2021/09/22 07:46:53;;;;;;;4.20;1.45;;;27.80;91.40;;;;;;5045813;28;20020;-48
2021/09/22 07:49:20;;;;;;;6.00;1.30;;;27.80;91.40;;;;;;5046127;28;20234;-51
2021/09/22 07:51:46;;;;;;;4.22;0.90;;;27.80;91.40;;;;;;5045726;28;20029;-53
2021/09/22 07:54:13;;;;;;;3.05;1.25;;;27.80;91.40;;;;;;5045741;28;20344;-50
2021/09/22 07:56:39;;;;;;;5.82;1.10;;;27.80;91.40;;;;;;5045752;28;20022;-50
2021/09/22 07:59:06;;;;;;;4.15;1.27;;;27.80;91.40;;;;;;5045600;28;20036;-48
2021/09/22 08:01:32;;;;;;;8.35;1.20;;;27.80;91.40;;;;;;5045453;28;20345;-48
2021/09/22 08:03:59;;;;;;;4.07;1.08;;;27.80;91.40;;;;;;5045660;28;20036;-51
2021/09/22 08:06:26;;;;;;;3.58;0.90;;;27.80;91.40;;;;;;5045671;28;20021;-47
2021/09/22 08:08:52;;;;;;;6.85;1.17;;;27.80;91.40;;;;;;5045347;28;20049;-51
2021/09/22 08:11:20;;;;;;;5.43;1.23;;;27.80;91.40;;;;;;5045465;28;20021;-52
2021/09/22 08:13:47;;;;;;;2.15;0.90;;;27.80;91.40;;;;;;5045268;28;20064;-50
2021/09/22 08:16:13;;;;;;;3.38;1.30;;;27.70;91.30;;;;;;5045310;28;20044;-54
2021/09/22 08:18:45;;;;;;;3.13;1.13;;;27.70;91.30;;;;;;5045144;28;20017;-50
2021/09/22 08:21:15;;;;;;;6.30;1.20;;;27.70;91.30;;;;;;5045165;28;20021;-49
2021/09/22 08:23:42;;;;;;;10.45;1.52;;;27.70;91.30;;;;;;5044943;28;20087;-50
2021/09/22 08:26:09;;;;;;;5.03;1.50;;;27.70;91.30;;;;;;5045275;28;20017;-49
2021/09/22 08:28:35;;;;;;;3.00;1.17;;;27.70;91.30;;;;;;5044983;28;20037;-52
2021/09/22 08:31:03;;;;;;;5.35;1.17;;;27.70;91.30;;;;;;5044849;28;20028;-47
2021/09/22 08:33:30;;;;;;;7.55;1.50;;;27.70;91.30;;;;;;5044852;28;20326;-50
2021/09/22 08:35:56;;;;;;;3.47;1.10;;;27.70;91.30;;;;;;5044913;28;20310;-48
2021/09/22 08:38:23;;;;;;;4.20;1.30;;;27.60;91.20;;;;;;5044676;28;20052;-50
2021/09/22 08:40:51;;;;;;;6.63;1.50;;;27.70;91.30;;;;;;5044720;28;20025;-48
2021/09/22 08:43:21;;;;;;;4.18;0.98;;;27.70;91.30;;;;;;5044701;28;20206;-48
2021/09/22 08:45:47;;;;;;;5.28;1.13;;;27.70;91.30;;;;;;5045099;28;20026;-52
2021/09/22 08:48:14;;;;;;;6.05;1.20;;;27.70;91.30;;;;;;5044626;28;20372;-55
2021/09/22 08:50:40;;;;;;;5.63;1.33;;;27.60;91.30;;;;;;5045084;28;20332;-48
2021/09/22 08:53:07;;;;;;;9.23;1.33;;;27.60;91.30;;;;;;5044458;28;20021;-49
2021/09/22 08:55:34;;;;;;;7.18;1.20;;;27.60;91.30;;;;;;5044902;28;20065;-49
2021/09/22 08:58:00;;;;;;;4.38;1.10;;;27.60;91.30;;;;;;5044463;28;20017;-49
2021/09/22 09:00:27;;;;;;;6.28;1.25;;;27.60;91.30;;;;;;5044756;28;20217;-50
2021/09/22 09:02:54;;;;;;;2.78;0.90;;;27.60;91.20;;;;;;5044365;28;20306;-50
2021/09/22 09:05:21;;;;;;;7.20;1.10;;;27.60;91.20;;;;;;5044565;28;20033;-51
2021/09/22 09:07:57;;;;;;;4.53;0.90;;;27.60;91.20;;;;;;5044066;28;20017;-49
2021/09/22 09:10:26;;;;;;;3.95;1.08;;;27.60;91.20;;;;;;5044696;28;20035;-48
2021/09/22 09:13:08;;;;;;;5.28;1.10;;;27.50;91.20;;;;;;5043974;28;20049;-45
2021/09/22 09:15:38;;;;;;;6.75;1.42;;;27.50;91.20;;;;;;5044691;28;20363;-50
2021/09/22 09:18:17;;;;;;;8.38;1.13;;;27.50;91.20;;;;;;5044127;28;20040;-50
2021/09/22 09:20:47;;;;;;;7.72;1.30;;;27.50;91.20;;;;;;5044526;28;20037;-47
2021/09/22 09:23:16;;;;;;;7.07;1.30;;;27.50;91.20;;;;;;5044363;28;20092;-47
2021/09/22 09:25:57;;;;;;;6.70;1.10;;;27.50;91.20;;;;;;5044371;28;20332;-48
2021/09/22 09:28:25;;;;;;;6.22;1.08;;;27.50;91.20;;;;;;5044142;28;20386;-49
2021/09/22 09:30:58;;;;;;;3.92;0.90;;;27.50;91.20;;;;;;5043811;28;20021;-53
2021/09/22 09:33:38;;;;;;;5.47;1.35;;;27.50;91.20;;;;;;5043877;28;20199;-59
2021/09/22 09:36:22;;;;;;;4.22;0.88;;;27.50;91.20;;;;;;5043866;28;20030;-51
2021/09/22 09:38:57;;;;;;;2.65;0.95;;;27.50;91.20;;;;;;5043795;28;20033;-52
2021/09/22 09:41:29;;;;;;;10.05;1.27;;;27.50;91.30;;;;;;5043226;28;20085;-52
2021/09/22 09:43:57;;;;;;;7.90;1.00;;;27.40;91.30;;;;;;5043801;28;20144;-51
2021/09/22 09:46:26;;;;;;;8.90;1.40;;;27.40;91.20;;;;;;5043823;28;20336;-51
2021/09/22 09:48:58;;;;;;;5.65;1.08;;;27.50;91.30;;;;;;5043584;28;20268;-51
2021/09/22 09:51:40;;;;;;;5.53;1.30;;;27.50;91.30;;;;;;5043800;28;20036;-57
2021/09/22 09:54:10;;;;;;;5.05;1.10;;;27.40;91.30;;;;;;5043679;28;20286;-53
2021/09/22 09:56:36;;;;;;;6.85;1.23;;;27.40;91.30;;;;;;5043695;28;20254;-52
2021/09/22 09:59:04;;;;;;;6.18;1.55;;;27.40;91.20;;;;;;5043698;28;20030;-54
2021/09/22 10:01:38;;;;;;;7.38;1.40;;;27.50;91.30;;;;;;5043493;28;20025;-52
2021/09/22 10:04:06;;;;;;;4.60;0.95;;;27.40;91.30;;;;;;5043724;28;20054;-52
2021/09/22 10:06:33;;;;;;;4.47;1.20;;;27.40;91.30;;;;;;5043757;28;20205;-52
2021/09/22 10:09:00;;;;;;;5.95;1.50;;;27.40;91.30;;;;;;5043756;28;20033;-49
2021/09/22 10:11:27;;;;;;;6.68;1.42;;;27.40;91.30;;;;;;5043723;28;20085;-49
2021/09/22 10:13:55;;;;;;;5.28;1.52;;;27.40;91.30;;;;;;5043474;28;20350;-48
2021/09/22 10:16:23;;;;;;;7.47;1.50;;;27.40;91.30;;;;;;5043498;28;20026;-52
2021/09/22 10:18:49;;;;;;;10.43;1.90;;;27.40;91.30;;;;;;5043482;28;20203;-56
2021/09/22 10:21:20;;;;;;;9.57;1.92;;;27.40;91.30;;;;;;5043433;28;20064;-46
2021/09/22 10:23:50;;;;;;;8.55;1.60;;;27.40;91.30;;;;;;5043515;28;20025;-49
2021/09/22 10:26:18;;;;;;;8.73;2.00;;;27.40;91.30;;;;;;5043409;28;20065;-49
2021/09/22 10:28:46;;;;;;;8.45;1.77;;;27.30;91.20;;;;;;5043525;28;20026;-50
2021/09/22 10:31:31;;;;;;;3.35;1.77;;;27.30;91.30;;;;;;5043338;28;20018;-49
2021/09/22 10:33:58;;;;;;;9.10;2.28;;;27.40;91.30;;;;;;5043495;28;20067;-49
2021/09/22 10:36:40;;;;;;;6.68;2.00;;;27.30;91.30;;;;;;5043360;28;20080;-46
2021/09/22 10:39:10;;;;;;;7.70;2.05;;;27.30;91.30;;;;;;5043306;28;20037;-58
2021/09/22 10:41:42;;;;;;;7.35;1.88;;;27.30;91.30;;;;;;5043489;28;20026;-52
2021/09/22 10:44:35;;;;;;;7.15;1.90;;;27.30;91.30;;;;;;5043408;28;20026;-52
2021/09/22 10:47:19;;;;;;;;;;;27.30;91.30;;;;;;5043586;28;20022;-50
2021/09/22 10:49:46;;;;;;;9.48;1.50;;;27.30;91.30;;;;;;5043378;28;19909;-49
2021/09/22 10:52:29;;;;;;;12.48;1.80;;;27.30;91.40;;;;;;5043238;28;20052;-58
2021/09/22 10:55:16;;;;;;;10.13;1.83;;;27.30;91.40;;;;;;5045808;28;20061;-52
2021/09/22 10:57:46;;;;;;;8.25;1.67;;;27.30;91.40;;;;;;5046858;28;20021;-52
2021/09/22 11:00:17;;;;;;;9.60;2.25;;;27.20;91.40;;;;;;5047092;28;20345;-50
2021/09/22 11:02:49;;;;;;;8.57;2.33;;;27.20;91.60;;;;;;5046703;28;20017;-50
2021/09/22 11:05:35;;;;;;;5.25;2.30;;;27.20;91.70;;;;;;5046977;28;20088;-52
2021/09/22 11:08:05;;;;;;;9.75;2.83;;;27.10;91.60;;;;;;5046546;28;20044;-54
2021/09/22 11:10:53;;;;;;;8.60;3.15;;;27.20;91.60;;;;;;5046989;28;20034;-51
2021/09/22 11:13:23;;;;;;;11.63;4.07;;;27.10;91.50;;;;;;5046450;28;20277;-58
2021/09/22 11:15:54;;;;;;;10.10;3.05;;;27.10;91.50;;;;;;5046548;28;20029;-57
2021/09/22 11:18:23;;;;;;;6.28;2.80;;;27.10;91.50;;;;;;5046340;28;20033;-54
2021/09/22 11:20:54;;;;;;;12.73;3.30;;;27.10;91.60;;;;;;5046254;28;20041;-56
2021/09/22 11:23:22;;;;;;;17.25;3.90;;;27.10;91.60;;;;;;5046403;28;20022;-55
2021/09/22 11:25:49;;;;;;;6.88;2.60;;;27.10;91.60;;;;;;5046350;28;20049;-55
2021/09/22 11:28:17;;;;;;;7.63;2.70;;;27.20;91.50;;;;;;5046256;28;20028;-53
2021/09/22 11:30:45;;;;;;;9.23;2.60;;;27.20;91.50;;;;;;5046508;28;20035;-53
2021/09/22 11:33:23;;;;;;;8.75;2.55;;;27.20;91.40;;;;;;5045026;28;20030;-54
2021/09/22 11:35:50;;;;;;;11.38;2.83;;;27.20;91.30;;;;;;5045973;28;20401;-56
2021/09/22 11:38:17;;;;;;;6.70;2.03;;;27.30;91.40;;;;;;5045854;28;20029;-57
2021/09/22 11:40:44;;;;;;;11.27;2.30;;;27.30;91.30;;;;;;5046339;28;20321;-55
2021/09/22 11:43:16;;;;;;;4.50;1.80;;;27.30;91.30;;;;;;5046172;28;20021;-54
2021/09/22 11:45:47;;;;;;;8.20;2.20;;;27.40;91.20;;;;;;5046279;28;20017;-55
2021/09/22 11:48:17;;;;;;;6.15;1.90;;;27.40;91.20;;;;;;5045954;28;20569;-53
2021/09/22 11:50:47;;;;;;;5.25;1.85;;;27.50;91.10;;;;;;5046580;28;20033;-51
2021/09/22 11:53:19;;;;;;;6.80;1.50;;;27.60;91.10;;;;;;5046103;28;20051;-53
2021/09/22 11:55:48;;;;;;;5.80;1.67;;;27.60;91.10;;;;;;5046426;28;20037;-49
2021/09/22 11:58:17;;;;;;;6.57;1.70;;;27.70;91.00;;;;;;5045818;28;20036;-53
2021/09/22 12:00:48;;;;;;;5.70;1.60;;;27.70;91.00;;;;;;5046056;28;20026;-57
2021/09/22 12:03:15;;;;;;;9.77;1.60;;;27.70;91.10;;;;;;5045584;28;20049;-59
2021/09/22 12:05:43;;;;;;;7.00;1.92;;;27.80;91.00;;;;;;5045406;28;20026;-52
2021/09/22 12:08:12;;;;;;;7.90;1.50;;;27.80;90.80;;;;;;5045522;28;20021;-53
2021/09/22 12:10:43;;;;;;;3.70;1.20;;;27.90;90.60;;;;;;5045762;28;20033;-50
2021/09/22 12:13:10;;;;;;;6.75;1.45;;;27.90;90.70;;;;;;5045249;28;20116;-52
2021/09/22 12:15:37;;;;;;;5.15;1.52;;;27.90;90.60;;;;;;5044547;28;20282;-53
2021/09/22 12:18:04;;;;;;;7.57;1.65;;;28.00;90.40;;;;;;5045306;28;20028;-53
2021/09/22 12:20:36;;;;;;;2.50;1.23;;;28.00;90.30;;;;;;5045404;28;20104;-56
2021/09/22 12:23:07;;;;;;;5.15;1.27;;;28.10;90.20;;;;;;5045099;28;20017;-56
2021/09/22 12:25:36;;;;;;;3.45;1.33;;;28.10;90.20;;;;;;5045297;28;20021;-56
2021/09/22 12:28:15;;;;;;;7.07;4.45;;;28.10;90.20;;;;;;5045006;28;20017;-54
2021/09/22 12:30:42;;;;;;;4.68;2.90;;;28.10;90.20;;;;;;5045590;28;20247;-55
2021/09/22 12:33:09;;;;;;;9.15;2.47;;;28.20;90.20;;;;;;5045071;28;20356;-54
2021/09/22 12:35:38;;;;;;;4.78;2.03;;;28.20;90.20;;;;;;5045435;28;20021;-56
2021/09/22 12:38:12;;;;;;;3.90;2.20;;;28.20;90.30;;;;;;5044869;28;20075;-54
2021/09/22 12:40:49;;;;;;;3.92;1.90;;;28.20;90.30;;;;;;5045489;28;20056;-51
2021/09/22 12:43:26;;;;;;;4.20;1.77;;;28.20;90.30;;;;;;5044870;28;20255;-55
2021/09/22 12:46:07;;;;;;;6.40;2.00;;;28.20;90.30;;;;;;5044787;28;20025;-60
2021/09/22 12:48:33;;;;;;;5.75;2.00;;;28.20;90.30;;;;;;5045008;28;20021;-53
2021/09/22 12:51:00;;;;;;;5.80;1.70;;;28.20;90.40;;;;;;5044624;28;20048;-51